ADDS METAR Data INFO
IDs: Format: Raw Decoded Include TAF

Data at: 0633 UTC 15 Dec 2017

KLVL 150615Z AUTO 00000KT 10SM CLR M01/M06 A3006 RMK AO1 T10061062
KLVL 150555Z AUTO 03003KT 10SM CLR M01/M06 A3007 RMK AO1 T10091061 10067 21009
KLVL 150535Z AUTO 00000KT 10SM CLR 00/M06 A3007 RMK AO1 T00001060
KLVL 150515Z AUTO 00000KT 10SM CLR 00/M06 A3007 RMK AO1 T00011059
KLVL 150455Z AUTO 03003KT 10SM CLR 00/M06 A3007 RMK AO1 T00041057 401241010
KLVL 150435Z AUTO 06003KT 10SM CLR 01/M05 A3006 RMK AO1 T00051055
KLVL 150415Z AUTO 00000KT 10SM CLR 01/M05 A3006 RMK AO1 T00091055
KLVL 150355Z AUTO 00000KT 10SM CLR 01/M05 A3006 RMK AO1 T00121052
KLVL 150335Z AUTO 00000KT 10SM CLR 02/M06 A3006 RMK AO1 T00161056
KLVL 150315Z AUTO 06003KT 10SM CLR 02/M05 A3005 RMK AO1 T00201055
KLVL 150255Z AUTO 00000KT 10SM CLR 02/M05 A3005 RMK AO1 T00241055
KLVL 150235Z AUTO 00000KT 10SM CLR 03/M05 A3005 RMK AO1 T00301052
KLVL 150215Z AUTO 04003KT 10SM CLR 04/M05 A3005 RMK AO1 T00351051
KLVL 150155Z AUTO 05003KT 10SM CLR 04/M05 A3004 RMK AO1 T00381046
KLVL 150135Z AUTO 04003KT 10SM CLR 04/M05 A3003 RMK AO1 T00411046
KLVL 150115Z AUTO 06006KT 10SM CLR 05/M04 A3003 RMK AO1 T00481040
KLVL 150055Z AUTO 04004KT 10SM CLR 06/M03 A3001 RMK AO1 T00551035
KLVL 150035Z AUTO 05005KT 10SM CLR 06/M04 A3000 RMK AO1 T00631037
KLVL 150015Z AUTO 00000KT 10SM CLR 07/M04 A2999 RMK AO1 T00661037
KLVL 142355Z AUTO 00000KT 10SM CLR 06/M02 A2998 RMK AO1 T00631024 10124 20061
KLVL 142335Z AUTO 00000KT 10SM CLR 07/M02 A2997 RMK AO1 T00651024
KLVL 142315Z AUTO 00000KT 10SM CLR 07/M01 A2997 RMK AO1 T00681012
KLVL 142255Z AUTO 00000KT 10SM CLR 08/M02 A2995 RMK AO1 T00751025
KLVL 142235Z AUTO 00000KT 10SM CLR 08/M02 A2994 RMK AO1 T00751021
KLVL 142215Z AUTO 00000KT 10SM CLR 07/M01 A2992 RMK AO1 T00711007
KLVL 142155Z AUTO 00000KT 10SM CLR 09/M03 A2991 RMK AO1 T00891027
KLVL 142135Z AUTO 00000KT 10SM CLR 09/M03 A2990 RMK AO1 T00911029
KLVL 142115Z AUTO 00000KT 10SM CLR 10/M04 A2988 RMK AO1 T01001036
KLVL 142055Z AUTO 00000KT 10SM CLR 10/M04 A2987 RMK AO1 T01011040
KLVL 142035Z AUTO 30003KT 10SM CLR 11/M05 A2986 RMK AO1 T01101049
KLVL 142015Z AUTO 29005KT 10SM CLR 12/M05 A2986 RMK AO1 T01151046
KLVL 141955Z AUTO 27004KT 10SM CLR 12/M04 A2985 RMK AO1 T01171039
KLVL 141935Z AUTO 32008KT 10SM CLR 12/M03 A2984 RMK AO1 T01221035
KLVL 141915Z AUTO 32006KT 10SM CLR 12/M04 A2983 RMK AO1 T01181042
KLVL 141855Z AUTO 33009KT 10SM CLR 12/M04 A2983 RMK AO1 T01241037
KLVL 141835Z AUTO 29006KT 10SM CLR 12/M04 A2983 RMK AO1 T01171042
KLVL 141815Z AUTO 26006KT 10SM CLR 12/M04 A2983 RMK AO1 T01191041
KLVL 141755Z AUTO 32006KT 10SM CLR 12/M04 A2982 RMK AO1 T01171041 10117 21010
KLVL 141735Z AUTO 00000KT 10SM CLR 11/M04 A2982 RMK AO1 T01111042
KLVL 141715Z AUTO 25009KT 220V300 10SM CLR 12/M04 A2982 RMK AO1 T01161039
KLVL 141655Z AUTO 31008KT 280V340 10SM CLR 11/M04 A2982 RMK AO1 T01101044
KLVL 141635Z AUTO 27004KT 10SM CLR 11/M04 A2981 RMK AO1 T01101043
KLVL 141615Z AUTO 28005KT 10SM CLR 11/M04 A2981 RMK AO1 T01101045
KLVL 141555Z AUTO 27005KT 10SM CLR 11/M04 A2981 RMK AO1 T01061045
KLVL 141535Z AUTO 25005KT 10SM CLR 09/M05 A2980 RMK AO1 T00921047
KLVL 141515Z AUTO 24006KT 10SM CLR 08/M05 A2980 RMK AO1 T00811050
KLVL 141455Z AUTO 23007KT 10SM CLR 07/M05 A2979 RMK AO1 T00721051
KLVL 141435Z AUTO 24006KT 10SM CLR 07/M05 A2978 RMK AO1 T00661055
KLVL 141415Z AUTO 23007KT 10SM CLR 06/M06 A2977 RMK AO1 T00551059
KLVL 141355Z AUTO 23007KT 10SM CLR 05/M06 A2975 RMK AO1 T00451061
KLVL 141335Z AUTO 23005KT 10SM CLR 03/M06 A2975 RMK AO1 T00321062
KLVL 141315Z AUTO 23005KT 10SM CLR 02/M06 A2973 RMK AO1 T00191063
KLVL 141255Z AUTO 22005KT 10SM CLR 01/M06 A2972 RMK AO1 T00051065
KLVL 141235Z AUTO 22005KT 10SM CLR 00/M07 A2972 RMK AO1 T10011070
KLVL 141215Z AUTO 21004KT 10SM CLR 00/M07 A2971 RMK AO1 T10021071
KLVL 141155Z AUTO 22004KT 10SM CLR 00/M07 A2971 RMK AO1 T10011073 10018 21001
KLVL 141135Z AUTO 22004KT 10SM CLR 00/M07 A2970 RMK AO1 T10011073
KLVL 141115Z AUTO 22003KT 10SM CLR 00/M07 A2969 RMK AO1 T00001073
KLVL 141055Z AUTO 22005KT 10SM CLR 00/M07 A2968 RMK AO1 T00031073
KLVL 141035Z AUTO 21006KT 10SM CLR 01/M07 A2967 RMK AO1 T00111073
KLVL 141015Z AUTO 22006KT 10SM CLR 01/M07 A2966 RMK AO1 T00081073
KLVL 140955Z AUTO 21006KT 10SM CLR 01/M07 A2965 RMK AO1 T00111075
KLVL 140935Z AUTO 20007KT 10SM CLR 01/M07 A2964 RMK AO1 T00111074
KLVL 140915Z AUTO 20005KT 10SM CLR 01/M07 A2963 RMK AO1 T00101074
KLVL 140855Z AUTO 20006KT 10SM CLR 01/M07 A2963 RMK AO1 T00111075
KLVL 140835Z AUTO 19005KT 10SM CLR 01/M08 A2963 RMK AO1 T00141076
KLVL 140815Z AUTO 20006KT 10SM CLR 01/M08 A2963 RMK AO1 T00121077
KLVL 140755Z AUTO 21006KT 10SM CLR 01/M08 A2964 RMK AO1 T00111079
KLVL 140735Z AUTO 20004KT 10SM CLR 01/M08 A2964 RMK AO1 T00081080
KLVL 140715Z AUTO 20005KT 10SM CLR 01/M08 A2964 RMK AO1 T00101080
KLVL 140655Z AUTO 19005KT 10SM CLR 01/M08 A2964 RMK AO1 T00131082
KLVL 140635Z AUTO 20004KT 10SM CLR 02/M08 A2965 RMK AO1 T00151083
KLVL 140615Z AUTO 20005KT 10SM CLR 02/M08 A2966 RMK AO1 T00161084
KLVL 140555Z AUTO 21006KT 10SM CLR 02/M08 A2966 RMK AO1 T00191085 10030 21006
KLVL 140535Z AUTO 20005KT 10SM CLR 02/M09 A2967 RMK AO1 T00211086
KLVL 140515Z AUTO 21009G15KT 10SM CLR 02/M09 A2967 RMK AO1 T00201088
KLVL 140455Z AUTO 18005KT 10SM CLR 02/M09 A2967 RMK AO1 T00171090 400321050
KLVL 140435Z AUTO 20005KT 10SM CLR 02/M09 A2968 RMK AO1 T00161092
KLVL 140415Z AUTO 20005KT 10SM CLR 02/M09 A2969 RMK AO1 T00201095
KLVL 140355Z AUTO 18008KT 10SM CLR 02/M10 A2969 RMK AO1 T00241098
KLVL 140335Z AUTO 19006KT 10SM SCT110 03/M10 A2971 RMK AO1 T00251100
KLVL 140315Z AUTO 19009KT 10SM BKN110 03/M10 A2972 RMK AO1 T00271101
KLVL 140255Z AUTO 19007KT 10SM OVC110 03/M10 A2972 RMK AO1 T00291101
KLVL 140235Z AUTO 17006KT 10SM BKN100 OVC120 02/M10 A2971 RMK AO1 T00221103
KLVL 140215Z AUTO 16005KT 10SM BKN080 OVC090 02/M11 A2972 RMK AO1 T00171108
KLVL 140155Z AUTO 00000KT 10SM SCT060 OVC075 02/M10 A2974 RMK AO1 T00151103
KLVL 140135Z AUTO 15003KT 10SM OVC075 01/M10 A2974 RMK AO1 T00111105
KLVL 140115Z AUTO 00000KT 10SM OVC075 01/M11 A2977 RMK AO1 T00081112
KLVL 140055Z AUTO 16003KT 10SM OVC085 01/M11 A2976 RMK AO1 T00081115
KLVL 140035Z AUTO 18005KT 10SM SCT070 BKN085 00/M11 A2976 RMK AO1 T00041114
KLVL 140015Z AUTO 17004KT 10SM BKN070 BKN085 00/M12 A2976 RMK AO1 T00001117
KLVL 132355Z AUTO 18003KT 10SM SCT070 SCT085 00/M12 A2978 RMK AO1 T10051120 10032 21007
KLVL 132335Z AUTO 00000KT 10SM CLR M01/M12 A2979 RMK AO1 T10061124
KLVL 132315Z AUTO 00000KT 10SM CLR 00/M12 A2979 RMK AO1 T00001122
KLVL 132255Z AUTO 00000KT 10SM CLR 00/M13 A2979 RMK AO1 T00011129
KLVL 132235Z AUTO 00000KT 10SM CLR 01/M13 A2980 RMK AO1 T00081133
KLVL 132215Z AUTO 00000KT 10SM CLR 01/M13 A2981 RMK AO1 T00111131
KLVL 132155Z AUTO 22004KT 10SM CLR 01/M13 A2982 RMK AO1 T00121128
KLVL 132135Z AUTO 23007KT 10SM CLR 02/M13 A2982 RMK AO1 T00241133
KLVL 132115Z AUTO 23007KT 10SM CLR 03/M13 A2982 RMK AO1 T00261133
KLVL 132055Z AUTO 23007KT 10SM CLR 02/M14 A2983 RMK AO1 T00221137
KLVL 132035Z AUTO 23009KT 10SM CLR 02/M14 A2983 RMK AO1 T00211138
KLVL 132015Z AUTO 23011G14KT 10SM CLR 02/M14 A2985 RMK AO1 T00221145
KLVL 131955Z AUTO 26006KT 10SM CLR 02/M15 A2985 RMK AO1 T00221151
KLVL 131935Z AUTO 28006KT 10SM CLR 03/M15 A2985 RMK AO1 T00301146
KLVL 131915Z AUTO 26007KT 210V290 10SM CLR 03/M15 A2985 RMK AO1 T00321151
KLVL 131855Z AUTO 24008KT 220V280 10SM CLR 03/M16 A2985 RMK AO1 T00251156
KLVL 131835Z AUTO 28008KT 240V300 10SM CLR 03/M16 A2986 RMK AO1 T00261158